• Join FlightAware (Why Join?)
  • Login
  • US Flag 
06:52AM EST


 

Airport Tracker/Info


-or-


 

Live Flight TrackerFlight Track Log ✈ N100JD ✈ 17-Jul-2013 ✈ KCYS - KCOD

Flight Track Log - Related Links

Times and Time Zones

All times are in EDT time to prevent confusion due to time zone crossing. See the N100JD flight status page for this flight to view local times or setup timezone preferences in your user account.

Time Position Orientation Groundspeed Altitude Reporting Facility
EDT Latitude Longitude Course Direction KTS MPH feet Rate Location/Type
06:13PM 41.1503 -104.7831 320° Northwest 118 136 7,400  Level Denver Center
06:14PM 41.1861 -104.8056 335° Northwest 146 168 8,800 1,380 Climbing Denver Center
06:15PM 41.2200 -104.8592 310° West 160 184 10,300 1,200 Climbing Denver Center
06:16PM 41.2494 -104.9017 313° West 163 188 11,400 780 Climbing Denver Center
06:17PM 41.4176 -105.1180 312° West  Level FlightAware Approximate
06:17PM 41.2844 -104.9619 308° West 175 201 12,000  Level Denver Center
06:18PM 41.4586 -105.1763 320° Northwest  Level FlightAware Approximate
06:18PM 41.3189 -105.0158 310° West 191 220 12,100  Level Denver Center
06:19PM 41.3625 -105.0667 319° Northwest 188 216 13,500 1,080 Climbing Denver Center
06:20PM 41.3942 -105.1028 319° Northwest 168 193 14,400 900 Climbing Denver Center
06:21PM 41.4347 -105.1492 319° Northwest 169 194 15,400 840 Climbing Denver Center
06:22PM 41.4697 -105.1908 318° Northwest 173 199 16,200 780 Climbing Denver Center
06:23PM 41.5083 -105.2353 319° Northwest 167 192 17,100 780 Climbing Denver Center
06:24PM 41.5425 -105.2750 319° Northwest 168 193 17,900 540 Climbing Denver Center
06:25PM 41.5783 -105.3172 319° Northwest 177 204 18,300 600 Climbing Denver Center
06:26PM 41.6192 -105.3658 318° Northwest 177 204 19,200 720 Climbing Denver Center
06:27PM 41.6531 -105.4056 319° Northwest 172 198 19,800 360 Climbing Denver Center
06:28PM 41.6964 -105.4572 318° Northwest 183 211 20,000 60 Climbing Denver Center
06:29PM 41.7400 -105.5081 319° Northwest 207 238 20,000  Level Denver Center
06:30PM 41.7914 -105.5703 318° Northwest 221 254 20,000  Level Denver Center
06:31PM 41.8372 -105.6222 320° Northwest 225 259 20,000  Level Denver Center
06:32PM 41.8897 -105.6853 318° Northwest 227 261 20,000  Level Denver Center
06:33PM 41.9356 -105.7394 319° Northwest 228 262 20,000  Level Denver Center
06:34PM 41.9875 -105.8031 318° Northwest 228 262 20,000  Level Denver Center
06:35PM 42.0325 -105.8564 319° Northwest 227 261 20,000  Level Denver Center
06:36PM 42.0861 -105.9225 318° Northwest 231 266 20,000  Level Denver Center
06:37PM 42.1292 -105.9756 318° Northwest 226 260 20,000  Level Denver Center
06:38PM 42.1733 -106.0292 318° Northwest 224 258 20,000  Level Denver Center
06:39PM 42.2264 -106.0922 319° Northwest 227 261 20,000  Level Denver Center
06:40PM 42.2633 -106.1369 318° Northwest 225 259 20,000  Level Denver Center
06:41PM 42.3233 -106.2108 318° Northwest 227 261 20,000  Level Denver Center
06:43PM 42.3686 -106.2661 318° Northwest 228 262 20,000  Level Denver Center
06:44PM 42.4219 -106.3289 319° Northwest 227 261 20,000  Level Denver Center
06:45PM 42.4592 -106.3758 317° Northwest 228 262 20,000  Level Denver Center
06:46PM 42.5194 -106.4483 318° Northwest 224 258 20,000  Level Denver Center
06:47PM 42.5633 -106.5044 317° Northwest 226 260 20,000  Level Denver Center
06:48PM 42.6158 -106.5672 319° Northwest 226 260 20,000  Level Denver Center
06:49PM 42.6606 -106.6219 318° Northwest 228 262 20,000  Level Denver Center
06:50PM 42.7106 -106.6844 317° Northwest 221 254 20,000  Level Denver Center
06:51PM 42.7553 -106.7400 318° Northwest 224 258 20,000  Level Denver Center
06:52PM 42.8006 -106.7958 318° Northwest 227 261 20,000  Level Denver Center
06:53PM 42.8533 -106.8606 318° Northwest 229 264 20,000  Level Denver Center
06:54PM 42.8892 -106.9078 316° Northwest 224 258 20,000  Level Salt Lake Center
06:55PM 42.9303 -106.9619 316° Northwest 224 258 20,000  Level Salt Lake Center
06:56PM 42.9769 -107.0192 318° Northwest 226 260 20,000  Level Salt Lake Center
06:57PM 43.0225 -107.0764 317° Northwest 223 257 20,000  Level Salt Lake Center
06:58PM 43.0781 -107.1475 317° Northwest 227 261 20,000  Level Salt Lake Center
06:59PM 43.1256 -107.2039 319° Northwest 226 260 20,000  Level Salt Lake Center
07:00PM 43.1706 -107.2639 316° Northwest 225 259 20,000  Level Salt Lake Center
07:01PM 43.2169 -107.3222 318° Northwest 225 259 20,000  Level Salt Lake Center
07:02PM 43.2642 -107.3800 318° Northwest 227 261 20,000  Level Salt Lake Center
07:03PM 43.3106 -107.4397 317° Northwest 230 265 20,000  Level Salt Lake Center
07:04PM 43.3561 -107.4994 316° Northwest 228 262 20,000  Level Salt Lake Center
07:05PM 43.4111 -107.5681 318° Northwest 223 257 20,000  Level Salt Lake Center
07:06PM 43.4581 -107.6297 316° Northwest 230 265 20,000  Level Salt Lake Center
07:07PM 43.5033 -107.6889 317° Northwest 226 260 20,000  Level Salt Lake Center
07:08PM 43.5494 -107.7483 317° Northwest 227 261 20,000  Level Salt Lake Center
07:09PM 43.5961 -107.8072 318° Northwest 227 261 20,000 -180 Level Salt Lake Center
07:10PM 43.6419 -107.8675 316° Northwest 229 264 19,700 -540 Descending Salt Lake Center
07:11PM 43.7011 -107.9431 317° Northwest 239 275 19,000 -780 Descending Salt Lake Center
07:12PM 43.7511 -108.0092 316° Northwest 246 283 18,200 -720 Descending Salt Lake Center
07:13PM 43.8011 -108.0733 317° Northwest 246 283 17,600 -660 Descending Salt Lake Center
07:14PM 43.8478 -108.1344 317° Northwest 237 273 16,900 -780 Descending Salt Lake Center
07:15PM 43.8939 -108.1981 315° West 235 270 16,100 -780 Descending Salt Lake Center
07:16PM 43.9419 -108.2600 317° Northwest 235 270 15,300 -780 Descending Salt Lake Center
07:17PM 43.9889 -108.3219 316° Northwest 234 269 14,500 -840 Descending Salt Lake Center
07:18PM 44.0433 -108.3933 317° Northwest 230 265 13,700 -840 Descending Salt Lake Center
07:19PM 44.0878 -108.4528 316° Northwest 226 260 12,900 -780 Descending Salt Lake Center